Crew | Aerofun Virtual



 METAR AND TAF INFORMATION
METAR FOR EFMA
ADDS - METARS form results

(0810 UTC 22 July 2019)
Data provider http://aviationweather.gov/metar/data/
 
METAR text: EFMA 220750Z AUTO 19007KT 140V210 9999 VCSH FEW056 //////CB 19/16 Q1010
Conditions at: EFMA (MARIEHAMN/ALAND , FI) observed 0750 UTC 22 July 2019
Temperature: 19.0°C (66°F)
Dewpoint: 16.0°C (61°F) [RH = 83%]
Pressure (altimeter): 29.82 inches Hg (1010.0 mb)
Winds: from the S (190 degrees) at 8 MPH (7 knots; 3.6 m/s)
Visibility: 6 or more miles (10+ km)
Ceiling: at least 12,000 feet AGL
Clouds: few clouds at 5600 feet AGL
Weather: VCSH  (showers in vicinity)

METAR text: EFMA 220720Z AUTO 17007KT 140V200 9999 VCSH BKN024 BKN069 //////CB 19/16 Q1010
Conditions at: EFMA (MARIEHAMN/ALAND , FI) observed 0720 UTC 22 July 2019
Temperature: 19.0°C (66°F)
Dewpoint: 16.0°C (61°F) [RH = 83%]
Pressure (altimeter): 29.82 inches Hg (1010.0 mb)
Winds: from the S (170 degrees) at 8 MPH (7 knots; 3.6 m/s)
Visibility: 6 or more miles (10+ km)
Ceiling: 2400 feet AGL
Clouds: broken clouds at 2400 feet AGL
broken clouds at 6900 feet AGL
Weather: VCSH  (showers in vicinity)

Forecast for: EFMA (MARIEHAMN/ALAND , FI)
Text: TAF EFMA 220533Z 2206/2215 08006KT 9999 FEW030 BKN070
Forecast period: 0600 to 0700 UTC 22 July 2019
Forecast type: FROM: standard forecast or significant change
Winds: from the E (80 degrees) at 7 MPH (6 knots; 3.1 m/s)
Visibility: 6 or more miles 10+ km)
Ceiling: 7000 feet AGL
Clouds: few clouds at 3000 feet AGL
broken clouds at 7000 feet AGL
Weather: no significant weather forecast for this period
Text: TEMPO 2206/2212 BKN006 SCT040CB
Forecast period: 0600 to 1200 UTC 22 July 2019
Forecast type: TEMPORARY: The following changes expected for less than half the time period
Visibility: missing
Ceiling: 600 feet AGL
Clouds: broken clouds at 600 feet AGL
scattered clouds at 4000 feet AGL
Weather: no significant weather forecast for this period
Text: BECMG 2207/2209 25010KT
Forecast period: 0700 to 1500 UTC 22 July 2019
Forecast type: BECOMING: Conditions expected to become as follows by 0900 UTC 22 July 2019
Winds: from the WSW (250 degrees) at 12 MPH (10 knots; 5.1 m/s)
Visibility: 6 or more miles 10+ km)
Ceiling: 7000 feet AGL
Clouds: few clouds at 3000 feet AGL
broken clouds at 7000 feet AGL
Weather: no significant weather forecast for this period

 AIRPORT MAP

 RUNWAY INFORMATION
Runway 03 Runway length 6243 ft Runway width 197 ft
Runway elevation 4 ft Runway displaced threshold 0 ft Runway heading 23
Runway 21 Runway length 6243 ft Runway width 197 ft
Runway elevation 17 ft Runway displaced threshold 0 ft Runway heading 203

 AIRPORT FREQUENCIES
Type ATIS Name ATIS Frequency 114.7 MHZ
Type TWR Name TWR Frequency 119.6 MHZ

 AIRPORT NEAR NAVIGATION AIDS
Type VOR-DME Name Marie Frequency 114700 KHZ